createdAt,value
2023-04-09T00:01:22.964Z,100.00
2023-04-09T00:03:52.850Z,100.00
2023-04-09T00:06:22.709Z,100.00
2023-04-09T00:08:52.653Z,100.00
2023-04-09T00:11:22.780Z,100.00
2023-04-09T00:13:52.656Z,100.00
2023-04-09T00:16:22.431Z,100.00
2023-04-09T00:18:52.548Z,100.00
2023-04-09T00:21:22.839Z,100.00
2023-04-09T00:23:52.743Z,100.00
2023-04-09T00:26:22.503Z,100.00
2023-04-09T00:28:52.472Z,100.00
2023-04-09T00:31:22.771Z,100.00
2023-04-09T00:33:52.572Z,100.00
2023-04-09T00:36:23.022Z,100.00
2023-04-09T00:38:54.188Z,100.00
2023-04-09T00:41:24.207Z,100.00
2023-04-09T00:43:57.191Z,100.00
2023-04-09T00:46:27.581Z,100.00
2023-04-09T00:48:57.672Z,100.00
2023-04-09T00:51:28.670Z,100.00
2023-04-09T00:53:58.937Z,100.00
2023-04-09T00:56:30.840Z,100.00
2023-04-09T00:59:00.905Z,100.00
2023-04-09T01:01:31.465Z,100.00
2023-04-09T01:04:02.072Z,100.00
2023-04-09T01:07:05.921Z,100.00
2023-04-09T01:10:05.549Z,100.00
2023-04-09T01:13:07.694Z,100.00
2023-04-09T01:15:53.193Z,100.00
2023-04-09T01:18:36.533Z,100.00
2023-04-09T01:21:14.257Z,100.00
2023-04-09T01:24:05.038Z,100.00
2023-04-09T01:27:05.557Z,100.00
2023-04-09T01:29:46.293Z,100.00
2023-04-09T01:32:21.372Z,100.00
2023-04-09T01:34:53.035Z,100.00
2023-04-09T01:37:25.592Z,100.00
2023-04-09T01:39:55.967Z,100.00
2023-04-09T01:42:27.486Z,100.00
2023-04-09T01:44:59.888Z,100.00
2023-04-09T01:47:30.899Z,100.00
2023-04-09T01:50:02.902Z,100.00
2023-04-09T01:52:33.142Z,100.00
2023-04-09T01:55:03.123Z,100.00
2023-04-09T01:57:32.849Z,100.00
2023-04-09T02:00:03.048Z,100.00
2023-04-09T02:02:44.577Z,100.00
2023-04-09T02:05:19.254Z,100.00
2023-04-09T02:07:56.522Z,100.00
2023-04-09T02:10:33.157Z,100.00
2023-04-09T02:13:06.449Z,100.00
2023-04-09T02:15:39.201Z,100.00
2023-04-09T02:18:27.309Z,100.00
2023-04-09T02:20:58.569Z,100.00
2023-04-09T02:23:28.378Z,100.00
2023-04-09T02:25:58.268Z,100.00
2023-04-09T02:28:28.397Z,100.00
2023-04-09T02:30:58.150Z,100.00
2023-04-09T02:33:27.935Z,100.00
2023-04-09T02:35:57.791Z,100.00
2023-04-09T02:38:27.826Z,100.00
2023-04-09T02:40:57.556Z,100.00
2023-04-09T02:43:27.386Z,100.00
2023-04-09T02:45:57.153Z,100.00
2023-04-09T02:48:27.199Z,100.00
2023-04-09T02:50:57.530Z,100.00
2023-04-09T02:53:27.281Z,100.00
2023-04-09T02:55:57.141Z,100.00
2023-04-09T02:58:26.993Z,100.00
2023-04-09T03:00:56.848Z,100.00
2023-04-09T03:03:26.899Z,100.00
2023-04-09T03:05:55.298Z,100.00
2023-04-09T03:08:23.963Z,100.00
2023-04-09T03:10:51.924Z,100.00
2023-04-09T03:13:20.494Z,100.00
2023-04-09T03:15:55.720Z,100.00
2023-04-09T03:18:24.029Z,100.00
2023-04-09T03:20:53.879Z,100.00
2023-04-09T03:23:23.721Z,100.00
2023-04-09T03:26:06.180Z,100.00
2023-04-09T03:28:36.118Z,100.00
2023-04-09T03:31:05.986Z,100.00
2023-04-09T03:33:35.813Z,100.00
2023-04-09T03:36:06.361Z,100.00
2023-04-09T03:38:36.235Z,100.00
2023-04-09T03:41:06.000Z,100.00
2023-04-09T03:43:36.195Z,100.00
2023-04-09T03:46:16.875Z,100.00
2023-04-09T03:48:46.927Z,100.00
2023-04-09T03:51:17.702Z,100.00
2023-04-09T03:53:47.619Z,100.00
2023-04-09T03:56:17.410Z,100.00
2023-04-09T03:58:49.709Z,100.00
2023-04-09T04:01:19.613Z,100.00
2023-04-09T04:03:49.965Z,100.00
2023-04-09T04:06:19.869Z,100.00
2023-04-09T04:08:49.824Z,100.00
2023-04-09T04:11:19.929Z,100.00
2023-04-09T04:13:49.708Z,100.00
2023-04-09T04:16:19.561Z,100.00
2023-04-09T04:18:49.488Z,100.00
2023-04-09T04:21:19.572Z,100.00
2023-04-09T04:23:49.439Z,100.00
2023-04-09T04:26:19.306Z,100.00
2023-04-09T04:28:49.169Z,100.00
2023-04-09T04:31:19.024Z,100.00
2023-04-09T04:33:48.803Z,100.00
2023-04-09T04:36:18.613Z,100.00
2023-04-09T04:38:48.501Z,100.00
2023-04-09T04:41:18.324Z,100.00
2023-04-09T04:43:48.146Z,100.00
2023-04-09T04:49:07.310Z,100.00
2023-04-09T04:51:37.045Z,100.00
2023-04-09T04:54:05.639Z,100.00
2023-04-09T04:56:34.003Z,100.00
2023-04-09T04:59:02.324Z,100.00
2023-04-09T05:01:31.082Z,100.00
2023-04-09T05:03:59.192Z,100.00
2023-04-09T05:06:28.072Z,100.00
2023-04-09T05:08:58.787Z,100.00
2023-04-09T05:11:28.487Z,100.00
2023-04-09T05:13:55.853Z,100.00
2023-04-09T05:16:24.350Z,100.00
2023-04-09T05:18:52.895Z,100.00
2023-04-09T05:21:21.207Z,100.00
2023-04-09T05:23:49.600Z,100.00
2023-04-09T05:26:17.981Z,100.00
2023-04-09T05:28:46.616Z,100.00
2023-04-09T05:31:15.785Z,100.00
2023-04-09T05:33:43.292Z,100.00
2023-04-09T05:36:17.416Z,100.00
2023-04-09T05:38:47.922Z,100.00
2023-04-09T05:41:17.685Z,100.00
2023-04-09T05:43:47.658Z,100.00
2023-04-09T05:46:17.506Z,100.00
2023-04-09T05:48:47.447Z,100.00
2023-04-09T05:51:17.264Z,100.00
2023-04-09T05:53:47.021Z,100.00
2023-04-09T05:56:17.148Z,100.00
2023-04-09T05:58:47.676Z,100.00
2023-04-09T06:01:17.431Z,100.00
2023-04-09T06:03:47.513Z,100.00
2023-04-09T06:06:17.550Z,100.00
2023-04-09T06:08:47.433Z,100.00
2023-04-09T06:11:17.466Z,100.00
2023-04-09T06:13:47.383Z,100.00
2023-04-09T06:16:17.519Z,100.00
2023-04-09T06:18:46.841Z,100.00
2023-04-09T06:21:14.264Z,100.00
2023-04-09T06:23:44.157Z,100.00
2023-04-09T06:26:14.331Z,100.00
2023-04-09T06:28:42.488Z,100.00
2023-04-09T06:31:10.874Z,100.00
2023-04-09T06:33:39.093Z,100.00
2023-04-09T06:36:08.076Z,100.00
2023-04-09T06:38:36.003Z,100.00
2023-04-09T06:41:06.883Z,100.00
2023-04-09T06:43:37.484Z,100.00
2023-04-09T06:46:07.414Z,100.00
2023-04-09T06:48:37.293Z,100.00
2023-04-09T06:51:07.623Z,100.00
2023-04-09T06:53:39.583Z,100.00
2023-04-09T06:56:09.533Z,100.00
2023-04-09T06:58:39.453Z,100.00
2023-04-09T07:01:09.371Z,99.92
2023-04-09T07:03:39.350Z,98.50
2023-04-09T07:06:09.343Z,97.51
2023-04-09T07:08:39.153Z,95.77
2023-04-09T07:11:09.075Z,95.75
2023-04-09T07:13:38.918Z,93.31
2023-04-09T07:16:08.906Z,90.84
2023-04-09T07:18:38.853Z,92.42
2023-04-09T07:21:08.652Z,90.14
2023-04-09T07:23:38.545Z,88.53
2023-04-09T07:26:08.500Z,89.58
2023-04-09T07:28:38.503Z,86.49
2023-04-09T07:31:08.679Z,85.40
2023-04-09T07:33:38.572Z,84.66
2023-04-09T07:36:08.741Z,83.97
2023-04-09T07:38:38.652Z,84.26
2023-04-09T07:41:11.602Z,84.74
2023-04-09T07:43:41.394Z,80.57
2023-04-09T07:46:11.240Z,79.87
2023-04-09T07:48:41.255Z,81.11
2023-04-09T07:51:11.380Z,81.63
2023-04-09T07:53:41.327Z,80.15
2023-04-09T07:56:11.289Z,80.31
2023-04-09T07:58:41.486Z,80.82
2023-04-09T08:01:11.312Z,78.29
2023-04-09T08:03:41.897Z,81.13
2023-04-09T08:06:12.109Z,79.16
2023-04-09T08:08:41.901Z,75.20
2023-04-09T08:11:11.650Z,75.68
2023-04-09T08:13:41.870Z,76.89
2023-04-09T08:16:11.656Z,78.08
2023-04-09T08:18:41.427Z,77.08
2023-04-09T08:21:11.478Z,75.84
2023-04-09T08:23:41.484Z,72.22
2023-04-09T08:26:11.303Z,73.23
2023-04-09T08:28:42.019Z,73.44
2023-04-09T08:31:11.816Z,71.62
2023-04-09T08:33:42.819Z,72.79
2023-04-09T08:36:12.908Z,72.77
2023-04-09T08:38:42.770Z,71.67
2023-04-09T08:41:24.377Z,67.98
2023-04-09T08:43:58.694Z,67.82
2023-04-09T08:46:29.349Z,68.63
2023-04-09T08:48:59.208Z,71.17
2023-04-09T08:51:28.889Z,71.08
2023-04-09T08:54:01.395Z,70.88
2023-04-09T08:56:33.021Z,68.62
2023-04-09T08:59:02.819Z,69.88
2023-04-09T09:01:33.299Z,72.01
2023-04-09T09:04:08.355Z,70.14
2023-04-09T09:06:41.712Z,69.50
2023-04-09T09:09:17.276Z,70.16
2023-04-09T09:11:50.976Z,69.98
2023-04-09T09:14:20.888Z,67.46
2023-04-09T09:16:58.629Z,67.67
2023-04-09T09:19:33.557Z,66.88
2023-04-09T09:22:06.647Z,69.12
2023-04-09T09:24:50.803Z,67.69
2023-04-09T09:27:43.139Z,67.37
2023-04-09T09:30:22.487Z,66.10
2023-04-09T09:33:07.988Z,67.13
2023-04-09T09:35:52.053Z,67.90
2023-04-09T09:38:21.927Z,64.27
2023-04-09T09:40:52.461Z,63.00
2023-04-09T09:43:20.563Z,66.64
2023-04-09T09:45:49.383Z,63.35
2023-04-09T09:48:17.163Z,62.81
2023-04-09T09:50:50.312Z,65.66
2023-04-09T09:53:25.017Z,65.15
2023-04-09T09:56:00.054Z,65.52
2023-04-09T09:58:38.841Z,61.75
2023-04-09T10:01:12.870Z,58.66
2023-04-09T10:03:44.646Z,61.14
2023-04-09T10:06:14.807Z,62.49
2023-04-09T10:08:44.136Z,63.46
2023-04-09T10:11:12.464Z,60.83
2023-04-09T10:13:46.497Z,60.55
2023-04-09T10:16:17.864Z,61.20
2023-04-09T10:18:48.024Z,59.79
2023-04-09T10:21:36.993Z,60.57
2023-04-09T10:24:09.207Z,59.33
2023-04-09T10:26:45.013Z,60.69
2023-04-09T10:29:16.821Z,60.18
2023-04-09T10:32:07.116Z,60.83
2023-04-09T10:34:41.703Z,60.37
2023-04-09T10:37:21.943Z,59.91
2023-04-09T10:39:53.195Z,61.87
2023-04-09T10:42:40.641Z,60.43
2023-04-09T10:45:16.826Z,60.70
2023-04-09T10:47:53.261Z,60.27
2023-04-09T10:50:26.989Z,61.54
2023-04-09T10:53:00.266Z,62.45
2023-04-09T10:55:38.782Z,62.49
2023-04-09T10:58:13.470Z,60.41
2023-04-09T11:00:46.822Z,61.72
2023-04-09T11:03:25.727Z,61.36
2023-04-09T11:06:06.068Z,59.18
2023-04-09T11:08:38.273Z,61.09
2023-04-09T11:11:08.003Z,59.60
2023-04-09T11:13:37.859Z,58.44
2023-04-09T11:16:07.802Z,58.58
2023-04-09T11:18:37.686Z,58.95
2023-04-09T11:21:09.542Z,57.58
2023-04-09T11:23:40.012Z,58.07
2023-04-09T11:26:09.879Z,58.66
2023-04-09T11:28:43.373Z,59.63
2023-04-09T11:31:13.219Z,59.68
2023-04-09T11:33:47.145Z,59.38
2023-04-09T11:36:17.880Z,60.04
2023-04-09T11:38:50.375Z,60.36
2023-04-09T11:41:38.719Z,60.02
2023-04-09T11:44:08.518Z,59.22
2023-04-09T11:46:39.690Z,60.40
2023-04-09T11:49:10.334Z,59.86
2023-04-09T11:51:40.310Z,60.23
2023-04-09T11:54:12.446Z,60.46
2023-04-09T11:56:42.963Z,58.50
2023-04-09T11:59:15.388Z,60.36
2023-04-09T12:01:52.284Z,60.07
2023-04-09T12:04:21.618Z,59.40
2023-04-09T12:06:51.970Z,58.11
2023-04-09T12:09:21.869Z,59.13
2023-04-09T12:11:52.189Z,59.51
2023-04-09T12:14:22.451Z,60.60
2023-04-09T12:16:52.377Z,60.72
2023-04-09T12:19:21.139Z,57.83
2023-04-09T12:21:50.847Z,57.42
2023-04-09T12:24:23.727Z,58.12
2023-04-09T12:26:53.454Z,59.51
2023-04-09T12:29:24.398Z,58.16
2023-04-09T12:31:54.207Z,56.66
2023-04-09T12:34:23.984Z,57.35
2023-04-09T12:36:53.754Z,56.62
2023-04-09T12:39:23.555Z,55.47
2023-04-09T12:41:54.430Z,55.99
2023-04-09T12:44:24.310Z,55.29
2023-04-09T12:46:52.577Z,55.54
2023-04-09T12:49:21.677Z,55.66
2023-04-09T12:51:49.643Z,55.01
2023-04-09T12:54:17.877Z,53.11
2023-04-09T12:56:46.605Z,54.99
2023-04-09T12:59:14.686Z,52.98
2023-04-09T13:01:43.617Z,53.62
2023-04-09T13:04:12.141Z,51.94
2023-04-09T13:06:39.908Z,53.99
2023-04-09T13:09:08.568Z,55.69
2023-04-09T13:11:36.997Z,55.19
2023-04-09T13:14:05.222Z,55.31
2023-04-09T13:16:34.257Z,55.47
2023-04-09T13:19:02.034Z,54.91
2023-04-09T13:21:31.057Z,54.47
2023-04-09T13:23:58.816Z,54.24
2023-04-09T13:26:27.393Z,53.17
2023-04-09T13:28:55.831Z,52.46
2023-04-09T13:31:25.131Z,52.39
2023-04-09T13:33:52.666Z,52.56
2023-04-09T13:36:20.974Z,52.81
2023-04-09T13:38:49.365Z,53.60
2023-04-09T13:41:17.879Z,53.15
2023-04-09T13:43:46.177Z,50.29
2023-04-09T13:46:14.678Z,51.38
2023-04-09T13:48:43.452Z,52.80
2023-04-09T13:51:11.477Z,52.79
2023-04-09T13:53:39.811Z,51.01
2023-04-09T13:56:08.618Z,47.74
2023-04-09T13:58:36.992Z,48.41
2023-04-09T14:01:07.976Z,48.87
2023-04-09T14:03:40.150Z,47.49
2023-04-09T14:06:09.997Z,47.95
2023-04-09T14:08:39.807Z,47.24
2023-04-09T14:11:13.914Z,45.62
2023-04-09T14:13:43.810Z,48.65
2023-04-09T14:16:13.593Z,46.17
2023-04-09T14:18:43.447Z,44.90
2023-04-09T14:21:13.349Z,44.58
2023-04-09T14:23:43.205Z,44.56
2023-04-09T14:26:13.314Z,48.58
2023-04-09T14:28:44.479Z,45.98
2023-04-09T14:31:14.372Z,44.04
2023-04-09T14:33:44.402Z,43.57
2023-04-09T14:36:14.309Z,43.13
2023-04-09T14:38:44.187Z,45.34
2023-04-09T14:41:14.029Z,44.67
2023-04-09T14:43:43.896Z,44.70
2023-04-09T14:46:14.060Z,45.04
2023-04-09T14:48:43.893Z,44.22
2023-04-09T14:51:13.706Z,42.56
2023-04-09T14:53:43.561Z,44.65
2023-04-09T14:56:13.451Z,42.97
2023-04-09T14:58:43.358Z,43.15
2023-04-09T15:01:13.246Z,43.55
2023-04-09T15:03:44.862Z,42.24
2023-04-09T15:06:14.868Z,43.43
2023-04-09T15:08:45.731Z,44.45
2023-04-09T15:11:22.540Z,44.81
2023-04-09T15:13:52.511Z,43.96
2023-04-09T15:16:28.344Z,43.71
2023-04-09T15:18:59.934Z,43.11
2023-04-09T15:21:31.710Z,44.04
2023-04-09T15:24:01.571Z,44.48
2023-04-09T15:26:33.466Z,44.54
2023-04-09T15:29:07.706Z,43.94
2023-04-09T15:31:39.527Z,44.14
2023-04-09T15:34:10.885Z,45.03
2023-04-09T15:36:40.730Z,44.50
2023-04-09T15:39:10.550Z,47.32
2023-04-09T15:41:40.650Z,46.26
2023-04-09T15:44:11.191Z,45.47
2023-04-09T15:46:41.028Z,47.05
2023-04-09T15:49:09.985Z,45.73
2023-04-09T15:51:37.898Z,46.48
2023-04-09T15:54:06.304Z,46.65
2023-04-09T15:56:36.981Z,46.72
2023-04-09T15:59:08.688Z,47.47
2023-04-09T16:01:39.031Z,46.64
2023-04-09T16:04:06.199Z,48.42
2023-04-09T16:06:34.384Z,50.06
2023-04-09T16:09:02.999Z,51.02
2023-04-09T16:11:31.765Z,51.69
2023-04-09T16:13:59.801Z,54.66
2023-04-09T16:16:28.246Z,57.82
2023-04-09T16:18:58.232Z,58.85
2023-04-09T16:21:29.095Z,59.31
2023-04-09T16:24:01.337Z,60.80
2023-04-09T16:26:31.147Z,61.90
2023-04-09T16:29:04.082Z,61.87
2023-04-09T16:31:34.912Z,62.45
2023-04-09T16:34:02.666Z,63.07
2023-04-09T16:36:37.098Z,64.61
2023-04-09T16:39:07.341Z,64.83
2023-04-09T16:41:38.482Z,65.10
2023-04-09T16:44:08.413Z,65.19
2023-04-09T16:46:38.260Z,65.90
2023-04-09T16:49:08.107Z,66.68
2023-04-09T16:51:36.429Z,66.89
2023-04-09T16:54:05.181Z,67.19
2023-04-09T16:56:33.471Z,66.83
2023-04-09T16:59:01.646Z,67.68
2023-04-09T17:01:30.321Z,68.11
2023-04-09T17:04:00.775Z,68.65
2023-04-09T17:06:29.927Z,69.11
2023-04-09T17:08:58.437Z,69.51
2023-04-09T17:11:27.159Z,69.55
2023-04-09T17:13:55.221Z,69.44
2023-04-09T17:16:23.883Z,69.72
2023-04-09T17:18:52.497Z,69.83
2023-04-09T17:21:20.627Z,69.85
2023-04-09T17:23:49.021Z,69.84
2023-04-09T17:26:17.905Z,70.19
2023-04-09T17:28:46.714Z,69.95
2023-04-09T17:31:16.159Z,69.91
2023-04-09T17:33:49.315Z,70.07
2023-04-09T17:36:25.757Z,70.46
2023-04-09T17:38:56.625Z,71.29
2023-04-09T17:41:27.767Z,71.90
2023-04-09T17:43:58.226Z,71.96
2023-04-09T17:46:28.868Z,71.88
2023-04-09T17:48:58.772Z,72.38
2023-04-09T17:51:28.870Z,73.41
2023-04-09T17:53:58.670Z,73.26
2023-04-09T17:56:28.436Z,73.41
2023-04-09T17:58:58.280Z,73.35
2023-04-09T18:01:28.156Z,73.62
2023-04-09T18:03:58.283Z,74.15
2023-04-09T18:06:28.480Z,74.96
2023-04-09T18:08:58.388Z,75.52
2023-04-09T18:11:28.137Z,75.74
2023-04-09T18:13:57.991Z,76.24
2023-04-09T18:16:28.329Z,77.28
2023-04-09T18:18:58.268Z,78.00
2023-04-09T18:21:28.571Z,78.56
2023-04-09T18:23:59.738Z,78.66
2023-04-09T18:26:30.600Z,79.51
2023-04-09T18:29:01.449Z,80.44
2023-04-09T18:31:31.809Z,80.52
2023-04-09T18:34:01.977Z,81.42
2023-04-09T18:36:31.799Z,82.09
2023-04-09T18:39:02.916Z,82.83
2023-04-09T18:41:32.798Z,83.37
2023-04-09T18:44:02.726Z,83.56
2023-04-09T18:46:32.956Z,83.72
2023-04-09T18:49:02.885Z,84.40
2023-04-09T18:51:33.222Z,85.15
2023-04-09T18:54:02.989Z,85.22
2023-04-09T18:56:33.557Z,85.93
2023-04-09T18:59:03.480Z,86.46
2023-04-09T19:01:33.535Z,87.06
2023-04-09T19:04:03.496Z,87.64
2023-04-09T19:06:35.278Z,88.15
2023-04-09T19:09:05.083Z,88.49
2023-04-09T19:11:34.912Z,89.02
2023-04-09T19:14:04.686Z,89.18
2023-04-09T19:16:34.589Z,89.23
2023-04-09T19:19:04.585Z,90.29
2023-04-09T19:21:35.918Z,90.66
2023-04-09T19:24:06.281Z,90.99
2023-04-09T19:26:36.339Z,91.17
2023-04-09T19:29:06.131Z,91.62
2023-04-09T19:31:35.991Z,91.97
2023-04-09T19:34:06.717Z,92.16
2023-04-09T19:36:36.896Z,92.92
2023-04-09T19:39:06.001Z,93.56
2023-04-09T19:41:33.301Z,94.29
2023-04-09T19:44:01.864Z,94.52
2023-04-09T19:46:30.264Z,94.95
2023-04-09T19:48:58.721Z,95.36
2023-04-09T19:51:27.330Z,95.78
2023-04-09T19:53:56.369Z,96.25
2023-04-09T19:56:24.942Z,96.98
2023-04-09T19:58:52.746Z,98.11
2023-04-09T20:01:20.865Z,98.66
2023-04-09T20:03:49.488Z,99.29
2023-04-09T20:06:18.230Z,99.98
2023-04-09T20:08:46.051Z,100.00
2023-04-09T20:11:19.184Z,100.00
2023-04-09T20:13:48.964Z,100.00
2023-04-09T20:16:18.917Z,100.00
2023-04-09T20:18:48.734Z,100.00
2023-04-09T20:21:19.064Z,100.00
2023-04-09T20:23:49.043Z,100.00
2023-04-09T20:26:18.915Z,100.00
2023-04-09T20:28:48.707Z,100.00
2023-04-09T20:31:18.770Z,100.00
2023-04-09T20:33:49.004Z,100.00
2023-04-09T20:36:19.943Z,100.00
2023-04-09T20:38:49.833Z,100.00
2023-04-09T20:41:19.933Z,100.00
2023-04-09T20:43:49.725Z,100.00
2023-04-09T20:46:18.410Z,100.00
2023-04-09T20:48:46.995Z,100.00
2023-04-09T20:51:15.842Z,100.00
2023-04-09T20:53:43.894Z,100.00
2023-04-09T20:56:12.411Z,100.00
2023-04-09T20:58:40.726Z,100.00
2023-04-09T21:01:09.966Z,100.00
2023-04-09T21:03:39.908Z,100.00
2023-04-09T21:06:08.972Z,100.00
2023-04-09T21:08:38.514Z,100.00
2023-04-09T21:11:06.639Z,100.00
2023-04-09T21:13:46.823Z,100.00
2023-04-09T21:16:26.154Z,100.00
2023-04-09T21:18:56.257Z,100.00
2023-04-09T21:21:28.358Z,100.00
2023-04-09T21:23:58.468Z,100.00
2023-04-09T21:26:35.843Z,100.00
2023-04-09T21:29:15.660Z,100.00
2023-04-09T21:31:45.776Z,100.00
2023-04-09T21:34:16.300Z,100.00
2023-04-09T21:36:46.596Z,100.00
2023-04-09T21:39:16.327Z,100.00
2023-04-09T21:41:46.038Z,100.00
2023-04-09T21:44:16.154Z,100.00
2023-04-09T21:46:46.233Z,100.00
2023-04-09T21:49:16.502Z,100.00
2023-04-09T21:51:46.536Z,100.00
2023-04-09T21:54:16.320Z,100.00
2023-04-09T21:56:46.512Z,100.00
2023-04-09T21:59:16.276Z,100.00
2023-04-09T22:01:47.553Z,100.00
2023-04-09T22:04:19.394Z,100.00
2023-04-09T22:06:49.385Z,100.00
2023-04-09T22:09:19.101Z,100.00
2023-04-09T22:11:48.806Z,100.00
2023-04-09T22:14:19.852Z,100.00
2023-04-09T22:16:49.670Z,100.00
2023-04-09T22:19:19.414Z,100.00
2023-04-09T22:21:50.608Z,100.00
2023-04-09T22:24:26.840Z,100.00
2023-04-09T22:27:01.435Z,100.00
2023-04-09T22:29:31.942Z,100.00
2023-04-09T22:32:03.662Z,100.00
2023-04-09T22:34:33.869Z,100.00
2023-04-09T22:37:02.047Z,100.00
2023-04-09T22:39:30.084Z,100.00
2023-04-09T22:41:58.556Z,100.00
2023-04-09T22:44:26.836Z,100.00
2023-04-09T22:46:55.360Z,100.00
2023-04-09T22:49:24.025Z,100.00
2023-04-09T22:51:52.122Z,100.00
2023-04-09T22:54:21.643Z,100.00
2023-04-09T22:56:49.583Z,100.00
2023-04-09T22:59:17.496Z,100.00
2023-04-09T23:01:45.998Z,100.00
2023-04-09T23:04:15.119Z,100.00
2023-04-09T23:06:42.800Z,100.00
2023-04-09T23:09:11.317Z,100.00
2023-04-09T23:11:39.539Z,100.00
2023-04-09T23:14:08.053Z,100.00
2023-04-09T23:16:36.562Z,100.00
2023-04-09T23:19:04.928Z,100.00
2023-04-09T23:21:33.317Z,100.00
2023-04-09T23:24:01.766Z,100.00
2023-04-09T23:26:30.341Z,100.00
2023-04-09T23:28:58.571Z,100.00
2023-04-09T23:31:27.288Z,100.00
2023-04-09T23:33:55.638Z,100.00
2023-04-09T23:36:24.343Z,100.00
2023-04-09T23:38:52.153Z,100.00
2023-04-09T23:41:20.902Z,100.00
2023-04-09T23:43:49.049Z,100.00
2023-04-09T23:46:17.604Z,100.00
2023-04-09T23:48:46.025Z,100.00
2023-04-09T23:51:21.222Z,100.00
2023-04-09T23:53:51.515Z,100.00
2023-04-09T23:56:23.061Z,100.00
2023-04-09T23:58:52.829Z,100.00
